sensor_id;sensor_type;location;lat;lon;timestamp;pressure;altitude;pressure_sealevel;temperature;humidity
65718;BME280;52445;52.466;-1.016;2022-12-11T00:00:43;99436.00;;;0.76;73.79
65718;BME280;52445;52.466;-1.016;2022-12-11T00:03:10;99439.41;;;0.77;74.66
65718;BME280;52445;52.466;-1.016;2022-12-11T00:05:41;99436.00;;;0.76;73.68
65718;BME280;52445;52.466;-1.016;2022-12-11T00:08:08;99442.00;;;0.79;74.39
65718;BME280;52445;52.466;-1.016;2022-12-11T00:10:34;99441.16;;;0.78;74.91
65718;BME280;52445;52.466;-1.016;2022-12-11T00:13:04;99444.53;;;0.79;74.72
65718;BME280;52445;52.466;-1.016;2022-12-11T00:15:30;99445.41;;;0.79;74.27
65718;BME280;52445;52.466;-1.016;2022-12-11T00:17:57;99451.34;;;0.80;73.97
65718;BME280;52445;52.466;-1.016;2022-12-11T00:20:24;99453.88;;;0.78;73.80
65718;BME280;52445;52.466;-1.016;2022-12-11T00:22:50;99456.47;;;0.80;74.62
65718;BME280;52445;52.466;-1.016;2022-12-11T00:25:17;99460.72;;;0.79;73.74
65718;BME280;52445;52.466;-1.016;2022-12-11T00:27:45;99462.47;;;0.82;73.71
65718;BME280;52445;52.466;-1.016;2022-12-11T00:30:13;99465.03;;;0.82;73.46
65718;BME280;52445;52.466;-1.016;2022-12-11T00:32:39;99459.91;;;0.82;73.71
65718;BME280;52445;52.466;-1.016;2022-12-11T00:35:06;99453.06;;;0.79;74.53
65718;BME280;52445;52.466;-1.016;2022-12-11T00:37:33;99446.25;;;0.80;74.66
65718;BME280;52445;52.466;-1.016;2022-12-11T00:40:00;99459.03;;;0.81;74.25
65718;BME280;52445;52.466;-1.016;2022-12-11T00:42:27;99447.19;;;0.82;74.91
65718;BME280;52445;52.466;-1.016;2022-12-11T00:44:53;99459.09;;;0.83;74.30
65718;BME280;52445;52.466;-1.016;2022-12-11T00:47:24;99458.28;;;0.84;74.06
65718;BME280;52445;52.466;-1.016;2022-12-11T00:49:51;99454.91;;;0.85;74.52
65718;BME280;52445;52.466;-1.016;2022-12-11T00:52:17;99446.44;;;0.86;74.81
65718;BME280;52445;52.466;-1.016;2022-12-11T00:54:44;99444.72;;;0.85;74.61
65718;BME280;52445;52.466;-1.016;2022-12-11T00:57:10;99445.47;;;0.81;73.59
65718;BME280;52445;52.466;-1.016;2022-12-11T00:59:37;99444.53;;;0.79;74.98
65718;BME280;52445;52.466;-1.016;2022-12-11T01:02:04;99449.53;;;0.75;74.30
65718;BME280;52445;52.466;-1.016;2022-12-11T01:04:31;99450.47;;;0.77;73.94
65718;BME280;52445;52.466;-1.016;2022-12-11T01:07:00;99449.63;;;0.79;74.07
65718;BME280;52445;52.466;-1.016;2022-12-11T01:09:27;99448.00;;;0.81;74.77
65718;BME280;52445;52.466;-1.016;2022-12-11T01:12:14;99442.06;;;0.82;74.79
65718;BME280;52445;52.466;-1.016;2022-12-11T01:14:41;99443.78;;;0.83;73.77
65718;BME280;52445;52.466;-1.016;2022-12-11T01:17:08;99436.16;;;0.83;74.20
65718;BME280;52445;52.466;-1.016;2022-12-11T01:19:35;99434.44;;;0.82;74.89
65718;BME280;52445;52.466;-1.016;2022-12-11T01:22:02;99432.75;;;0.82;73.96
65718;BME280;52445;52.466;-1.016;2022-12-11T01:24:30;99429.28;;;0.80;73.86
65718;BME280;52445;52.466;-1.016;2022-12-11T01:26:56;99430.97;;;0.80;74.25
65718;BME280;52445;52.466;-1.016;2022-12-11T01:29:24;99432.72;;;0.81;74.25
65718;BME280;52445;52.466;-1.016;2022-12-11T01:31:50;99438.66;;;0.81;74.02
65718;BME280;52445;52.466;-1.016;2022-12-11T01:34:17;99437.81;;;0.81;74.46
65718;BME280;52445;52.466;-1.016;2022-12-11T01:36:44;99440.34;;;0.81;74.54
65718;BME280;52445;52.466;-1.016;2022-12-11T01:39:10;99442.91;;;0.81;73.94
65718;BME280;52445;52.466;-1.016;2022-12-11T01:41:37;99443.69;;;0.78;73.99
65718;BME280;52445;52.466;-1.016;2022-12-11T01:47:01;99434.25;;;0.75;74.09
65718;BME280;52445;52.466;-1.016;2022-12-11T01:49:28;99442.72;;;0.74;74.61
65718;BME280;52445;52.466;-1.016;2022-12-11T01:51:58;99434.25;;;0.75;74.86
65718;BME280;52445;52.466;-1.016;2022-12-11T01:54:28;99436.78;;;0.75;74.18
65718;BME280;52445;52.466;-1.016;2022-12-11T01:56:59;99436.75;;;0.74;74.32
65718;BME280;52445;52.466;-1.016;2022-12-11T01:59:28;99427.34;;;0.71;74.55
65718;BME280;52445;52.466;-1.016;2022-12-11T02:04:42;99433.50;;;1.12;74.21
65718;BME280;52445;52.466;-1.016;2022-12-11T02:07:09;99423.56;;;0.89;74.15
65718;BME280;52445;52.466;-1.016;2022-12-11T02:09:38;99415.66;;;0.80;74.13
65718;BME280;52445;52.466;-1.016;2022-12-11T02:17:43;99424.56;;;0.62;74.38
65718;BME280;52445;52.466;-1.016;2022-12-11T02:28:42;99427.88;;;0.29;74.86
65718;BME280;52445;52.466;-1.016;2022-12-11T02:31:27;99416.75;;;0.25;75.72
65718;BME280;52445;52.466;-1.016;2022-12-11T02:36:35;99426.72;;;0.19;74.68
65718;BME280;52445;52.466;-1.016;2022-12-11T02:39:04;99421.56;;;0.16;74.69
65718;BME280;52445;52.466;-1.016;2022-12-11T02:41:33;99415.59;;;0.15;75.39
65718;BME280;52445;52.466;-1.016;2022-12-11T02:44:01;99420.69;;;0.15;75.24
65718;BME280;52445;52.466;-1.016;2022-12-11T02:46:29;99415.59;;;0.15;74.84
65718;BME280;52445;52.466;-1.016;2022-12-11T02:48:57;99417.22;;;0.13;75.42
65718;BME280;52445;52.466;-1.016;2022-12-11T02:51:28;99410.41;;;0.12;75.21
65718;BME280;52445;52.466;-1.016;2022-12-11T02:53:57;99419.72;;;0.11;75.24
65718;BME280;52445;52.466;-1.016;2022-12-11T02:56:29;99404.38;;;0.08;74.55
65718;BME280;52445;52.466;-1.016;2022-12-11T02:59:00;99409.44;;;0.07;75.22
65718;BME280;52445;52.466;-1.016;2022-12-11T03:01:29;99397.44;;;0.03;74.96
65718;BME280;52445;52.466;-1.016;2022-12-11T03:03:56;99403.25;;;-0.02;74.56
65718;BME280;52445;52.466;-1.016;2022-12-11T03:06:30;99409.09;;;-0.04;75.24
65718;BME280;52445;52.466;-1.016;2022-12-11T03:08:58;99404.56;;;-0.15;74.84
65718;BME280;52445;52.466;-1.016;2022-12-11T03:11:24;99404.31;;;-0.22;75.48
65718;BME280;52445;52.466;-1.016;2022-12-11T03:13:52;99404.13;;;-0.29;75.06
65718;BME280;52445;52.466;-1.016;2022-12-11T03:16:50;99402.38;;;-0.30;75.20
65718;BME280;52445;52.466;-1.016;2022-12-11T03:19:29;99404.13;;;-0.29;75.02
65718;BME280;52445;52.466;-1.016;2022-12-11T03:25:09;99390.59;;;-0.28;75.23
65718;BME280;52445;52.466;-1.016;2022-12-11T03:30:24;99394.91;;;-0.25;75.21
65718;BME280;52445;52.466;-1.016;2022-12-11T03:35:39;99383.84;;;-0.26;74.97
65718;BME280;52445;52.466;-1.016;2022-12-11T03:38:12;99379.69;;;-0.23;75.04
65718;BME280;52445;52.466;-1.016;2022-12-11T03:40:42;99376.25;;;-0.24;75.42
65718;BME280;52445;52.466;-1.016;2022-12-11T03:43:10;99370.22;;;-0.28;74.96
65718;BME280;52445;52.466;-1.016;2022-12-11T03:45:38;99372.66;;;-0.31;75.13
65718;BME280;52445;52.466;-1.016;2022-12-11T03:48:06;99375.06;;;-0.37;74.85
65718;BME280;52445;52.466;-1.016;2022-12-11T03:50:35;99374.84;;;-0.43;74.66
65718;BME280;52445;52.466;-1.016;2022-12-11T03:53:03;99373.03;;;-0.47;75.54
65718;BME280;52445;52.466;-1.016;2022-12-11T03:55:31;99366.13;;;-0.52;74.80
65718;BME280;52445;52.466;-1.016;2022-12-11T03:57:59;99366.00;;;-0.55;74.98
65718;BME280;52445;52.466;-1.016;2022-12-11T04:00:25;99367.63;;;-0.57;75.26
65718;BME280;52445;52.466;-1.016;2022-12-11T04:02:52;99366.69;;;-0.60;74.92
65718;BME280;52445;52.466;-1.016;2022-12-11T04:05:43;99375.91;;;-0.64;75.16
65718;BME280;52445;52.466;-1.016;2022-12-11T04:08:10;99373.25;;;-0.67;75.26
65718;BME280;52445;52.466;-1.016;2022-12-11T04:10:37;99378.25;;;-0.70;74.80
65718;BME280;52445;52.466;-1.016;2022-12-11T04:13:04;99383.22;;;-0.73;75.02
65718;BME280;52445;52.466;-1.016;2022-12-11T04:15:31;99379.63;;;-0.80;74.89
65718;BME280;52445;52.466;-1.016;2022-12-11T04:17:57;99381.19;;;-0.84;75.17
65718;BME280;52445;52.466;-1.016;2022-12-11T04:20:44;99383.66;;;-0.87;74.63
65718;BME280;52445;52.466;-1.016;2022-12-11T04:23:30;99380.28;;;-0.86;74.72
65718;BME280;52445;52.466;-1.016;2022-12-11T04:26:19;99379.47;;;-0.85;75.22
65718;BME280;52445;52.466;-1.016;2022-12-11T04:28:46;99372.00;;;-0.80;74.62
65718;BME280;52445;52.466;-1.016;2022-12-11T04:31:16;99379.75;;;-0.77;75.19
65718;BME280;52445;52.466;-1.016;2022-12-11T04:33:44;99379.88;;;-0.72;75.12
65718;BME280;52445;52.466;-1.016;2022-12-11T04:36:11;99376.59;;;-0.68;74.73
65718;BME280;52445;52.466;-1.016;2022-12-11T04:38:38;99374.97;;;-0.66;74.89
65718;BME280;52445;52.466;-1.016;2022-12-11T04:41:07;99374.25;;;-0.62;75.04
65718;BME280;52445;52.466;-1.016;2022-12-11T04:43:35;99379.47;;;-0.59;74.71
65718;BME280;52445;52.466;-1.016;2022-12-11T04:48:38;99383.09;;;-0.50;75.32
65718;BME280;52445;52.466;-1.016;2022-12-11T04:51:06;99374.69;;;-0.48;75.13
65718;BME280;52445;52.466;-1.016;2022-12-11T04:53:34;99381.59;;;-0.44;74.99
65718;BME280;52445;52.466;-1.016;2022-12-11T04:56:04;99373.19;;;-0.41;75.05
65718;BME280;52445;52.466;-1.016;2022-12-11T04:58:30;99374.13;;;-0.39;74.61
65718;BME280;52445;52.466;-1.016;2022-12-11T05:00:57;99366.59;;;-0.36;74.69
65718;BME280;52445;52.466;-1.016;2022-12-11T05:03:24;99368.31;;;-0.35;74.91
65718;BME280;52445;52.466;-1.016;2022-12-11T05:05:51;99375.06;;;-0.37;75.03
65718;BME280;52445;52.466;-1.016;2022-12-11T05:08:20;99369.09;;;-0.37;74.57
65718;BME280;52445;52.466;-1.016;2022-12-11T05:10:56;99368.25;;;-0.36;74.84
65718;BME280;52445;52.466;-1.016;2022-12-11T05:13:23;99368.31;;;-0.35;75.09
65718;BME280;52445;52.466;-1.016;2022-12-11T05:15:50;99362.34;;;-0.35;74.91
65718;BME280;52445;52.466;-1.016;2022-12-11T05:18:18;99359.00;;;-0.34;75.15
65718;BME280;52445;52.466;-1.016;2022-12-11T05:20:44;99359.84;;;-0.34;74.79
65718;BME280;52445;52.466;-1.016;2022-12-11T05:23:11;99356.41;;;-0.36;75.05
65718;BME280;52445;52.466;-1.016;2022-12-11T05:25:37;99358.97;;;-0.36;74.92
65718;BME280;52445;52.466;-1.016;2022-12-11T05:28:04;99361.50;;;-0.36;74.95
65718;BME280;52445;52.466;-1.016;2022-12-11T05:30:31;99363.22;;;-0.35;75.13
65718;BME280;52445;52.466;-1.016;2022-12-11T05:32:58;99356.41;;;-0.36;74.92
65718;BME280;52445;52.466;-1.016;2022-12-11T05:35:24;99357.25;;;-0.35;74.66
65718;BME280;52445;52.466;-1.016;2022-12-11T05:37:51;99346.22;;;-0.36;74.87
65718;BME280;52445;52.466;-1.016;2022-12-11T05:40:17;99346.22;;;-0.36;74.64
65718;BME280;52445;52.466;-1.016;2022-12-11T05:42:44;99348.72;;;-0.37;74.77
65718;BME280;52445;52.466;-1.016;2022-12-11T05:45:10;99352.94;;;-0.38;74.74
65718;BME280;52445;52.466;-1.016;2022-12-11T05:47:38;99349.50;;;-0.40;75.02
65718;BME280;52445;52.466;-1.016;2022-12-11T05:50:04;99351.13;;;-0.42;75.13
65718;BME280;52445;52.466;-1.016;2022-12-11T05:52:31;99349.41;;;-0.43;75.05
65718;BME280;52445;52.466;-1.016;2022-12-11T05:54:58;99341.66;;;-0.46;75.17
65718;BME280;52445;52.466;-1.016;2022-12-11T05:57:25;99351.03;;;-0.45;74.65
65718;BME280;52445;52.466;-1.016;2022-12-11T05:59:51;99350.13;;;-0.47;74.22
65718;BME280;52445;52.466;-1.016;2022-12-11T06:02:18;99345.88;;;-0.48;74.89
65718;BME280;52445;52.466;-1.016;2022-12-11T06:04:45;99345.75;;;-0.52;75.28
65718;BME280;52445;52.466;-1.016;2022-12-11T06:07:12;99351.66;;;-0.53;74.63
65718;BME280;52445;52.466;-1.016;2022-12-11T06:09:38;99349.03;;;-0.56;75.05
65718;BME280;52445;52.466;-1.016;2022-12-11T06:12:05;99342.19;;;-0.57;75.11
65718;BME280;52445;52.466;-1.016;2022-12-11T06:14:32;99351.56;;;-0.56;74.92
65718;BME280;52445;52.466;-1.016;2022-12-11T06:16:58;99348.16;;;-0.56;75.12
65718;BME280;52445;52.466;-1.016;2022-12-11T06:19:25;99352.31;;;-0.60;75.32
65718;BME280;52445;52.466;-1.016;2022-12-11T06:21:51;99353.88;;;-0.63;75.28
65718;BME280;52445;52.466;-1.016;2022-12-11T06:24:18;99348.63;;;-0.68;75.15
65718;BME280;52445;52.466;-1.016;2022-12-11T06:26:44;99351.09;;;-0.71;74.78
65718;BME280;52445;52.466;-1.016;2022-12-11T06:29:11;99355.25;;;-0.73;75.26
65718;BME280;52445;52.466;-1.016;2022-12-11T06:31:38;99360.34;;;-0.73;74.93
65718;BME280;52445;52.466;-1.016;2022-12-11T06:34:05;99357.75;;;-0.75;75.43
65718;BME280;52445;52.466;-1.016;2022-12-11T06:36:32;99363.72;;;-0.74;74.76
65718;BME280;52445;52.466;-1.016;2022-12-11T06:38:59;99364.66;;;-0.71;75.09
65718;BME280;52445;52.466;-1.016;2022-12-11T06:41:25;99359.50;;;-0.72;75.24
65718;BME280;52445;52.466;-1.016;2022-12-11T06:43:52;99364.59;;;-0.72;75.19
65718;BME280;52445;52.466;-1.016;2022-12-11T06:46:19;99358.72;;;-0.71;75.48
65718;BME280;52445;52.466;-1.016;2022-12-11T06:48:47;99363.81;;;-0.71;75.83
65718;BME280;52445;52.466;-1.016;2022-12-11T06:51:17;99355.34;;;-0.70;75.45
65718;BME280;52445;52.466;-1.016;2022-12-11T06:53:44;99363.88;;;-0.70;75.33
65718;BME280;52445;52.466;-1.016;2022-12-11T06:56:13;99357.84;;;-0.72;75.28
65718;BME280;52445;52.466;-1.016;2022-12-11T06:58:41;99359.50;;;-0.72;75.50
65718;BME280;52445;52.466;-1.016;2022-12-11T07:01:26;99352.72;;;-0.73;75.17
65718;BME280;52445;52.466;-1.016;2022-12-11T07:03:55;99353.53;;;-0.74;75.61
65718;BME280;52445;52.466;-1.016;2022-12-11T07:06:22;99359.50;;;-0.72;75.36
65718;BME280;52445;52.466;-1.016;2022-12-11T07:08:50;99344.25;;;-0.74;75.60
65718;BME280;52445;52.466;-1.016;2022-12-11T07:11:18;99346.81;;;-0.72;75.29
65718;BME280;52445;52.466;-1.016;2022-12-11T07:13:45;99347.69;;;-0.72;75.31
65718;BME280;52445;52.466;-1.016;2022-12-11T07:16:14;99348.56;;;-0.71;75.53
65718;BME280;52445;52.466;-1.016;2022-12-11T07:18:46;99358.72;;;-0.71;75.33
65718;BME280;52445;52.466;-1.016;2022-12-11T07:21:13;99357.69;;;-0.76;75.30
65718;BME280;52445;52.466;-1.016;2022-12-11T07:23:40;99363.59;;;-0.78;75.31
65718;BME280;52445;52.466;-1.016;2022-12-11T07:26:10;99364.47;;;-0.77;75.47
65718;BME280;52445;52.466;-1.016;2022-12-11T07:28:37;99366.97;;;-0.79;75.26
65718;BME280;52445;52.466;-1.016;2022-12-11T07:31:07;99365.03;;;-0.86;75.17
65718;BME280;52445;52.466;-1.016;2022-12-11T07:33:34;99362.34;;;-0.91;75.26
65718;BME280;52445;52.466;-1.016;2022-12-11T07:36:02;99363.22;;;-0.90;75.26
65718;BME280;52445;52.466;-1.016;2022-12-11T07:38:29;99358.94;;;-0.91;75.41
65718;BME280;52445;52.466;-1.016;2022-12-11T07:41:06;99363.97;;;-0.93;75.49
65718;BME280;52445;52.466;-1.016;2022-12-11T07:43:34;99363.09;;;-0.93;75.48
65718;BME280;52445;52.466;-1.016;2022-12-11T07:46:03;99368.19;;;-0.93;75.46
65718;BME280;52445;52.466;-1.016;2022-12-11T07:48:31;99371.66;;;-0.91;75.48
65718;BME280;52445;52.466;-1.016;2022-12-11T07:54:00;99374.22;;;-0.91;75.47
65718;BME280;52445;52.466;-1.016;2022-12-11T07:56:28;99369.91;;;-0.92;75.15
65718;BME280;52445;52.466;-1.016;2022-12-11T07:58:55;99373.28;;;-0.93;75.97
65718;BME280;52445;52.466;-1.016;2022-12-11T08:01:24;99378.34;;;-0.93;75.80
65718;BME280;52445;52.466;-1.016;2022-12-11T08:03:52;99375.88;;;-0.92;75.48
65718;BME280;52445;52.466;-1.016;2022-12-11T08:06:24;99377.59;;;-0.91;75.61
65718;BME280;52445;52.466;-1.016;2022-12-11T08:08:53;99385.16;;;-0.92;75.43
65718;BME280;52445;52.466;-1.016;2022-12-11T08:11:19;99384.25;;;-0.94;75.39
65718;BME280;52445;52.466;-1.016;2022-12-11T08:13:46;99381.84;;;-0.91;75.61
65718;BME280;52445;52.466;-1.016;2022-12-11T08:16:14;99380.19;;;-0.89;75.52
65718;BME280;52445;52.466;-1.016;2022-12-11T08:18:41;99381.06;;;-0.88;75.31
65718;BME280;52445;52.466;-1.016;2022-12-11T08:23:46;99385.78;;;-0.99;75.48
65718;BME280;52445;52.466;-1.016;2022-12-11T08:26:16;99387.25;;;-1.06;75.56
65718;BME280;52445;52.466;-1.016;2022-12-11T08:28:44;99390.41;;;-1.13;76.18
65718;BME280;52445;52.466;-1.016;2022-12-11T08:31:12;99384.13;;;-1.23;75.96
65718;BME280;52445;52.466;-1.016;2022-12-11T08:33:39;99388.16;;;-1.30;75.98
65718;BME280;52445;52.466;-1.016;2022-12-11T08:36:10;99389.03;;;-1.30;76.57
65718;BME280;52445;52.466;-1.016;2022-12-11T08:38:37;99381.47;;;-1.28;76.32
65718;BME280;52445;52.466;-1.016;2022-12-11T08:43:59;99379.22;;;-1.19;76.20
65718;BME280;52445;52.466;-1.016;2022-12-11T08:46:29;99382.81;;;-1.12;76.16
65718;BME280;52445;52.466;-1.016;2022-12-11T08:48:57;99383.81;;;-1.08;76.06
65718;BME280;52445;52.466;-1.016;2022-12-11T08:51:26;99383.16;;;-1.02;76.07
65718;BME280;52445;52.466;-1.016;2022-12-11T08:53:54;99384.16;;;-0.97;76.08
65718;BME280;52445;52.466;-1.016;2022-12-11T08:56:21;99388.53;;;-0.93;76.01
65718;BME280;52445;52.466;-1.016;2022-12-11T08:58:49;99385.16;;;-0.92;75.56
65718;BME280;52445;52.466;-1.016;2022-12-11T09:01:21;99387.00;;;-0.88;75.78
65718;BME280;52445;52.466;-1.016;2022-12-11T09:03:49;99387.09;;;-0.85;76.25
65718;BME280;52445;52.466;-1.016;2022-12-11T09:06:19;99391.47;;;-0.81;75.62
65718;BME280;52445;52.466;-1.016;2022-12-11T09:08:48;99389.03;;;-0.78;75.72
65718;BME280;52445;52.466;-1.016;2022-12-11T09:11:20;99393.34;;;-0.75;75.70
65718;BME280;52445;52.466;-1.016;2022-12-11T09:13:47;99390.97;;;-0.70;75.25
65718;BME280;52445;52.466;-1.016;2022-12-11T09:16:18;99394.41;;;-0.68;75.67
65718;BME280;52445;52.466;-1.016;2022-12-11T09:18:46;99397.06;;;-0.65;76.04
65718;BME280;52445;52.466;-1.016;2022-12-11T09:21:15;99397.97;;;-0.63;75.63
65718;BME280;52445;52.466;-1.016;2022-12-11T09:23:43;99400.56;;;-0.61;75.68
65718;BME280;52445;52.466;-1.016;2022-12-11T09:26:12;99399.81;;;-0.59;75.70
65718;BME280;52445;52.466;-1.016;2022-12-11T09:28:42;99404.91;;;-0.59;75.29
65718;BME280;52445;52.466;-1.016;2022-12-11T09:31:16;99401.53;;;-0.58;75.57
65718;BME280;52445;52.466;-1.016;2022-12-11T09:33:44;99394.81;;;-0.56;75.30
65718;BME280;52445;52.466;-1.016;2022-12-11T09:36:11;99393.19;;;-0.54;75.63
65718;BME280;52445;52.466;-1.016;2022-12-11T09:38:38;99398.38;;;-0.50;75.42
65718;BME280;52445;52.466;-1.016;2022-12-11T09:46:38;99391.72;;;-0.45;75.30
65718;BME280;52445;52.466;-1.016;2022-12-11T09:49:17;99390.00;;;-0.46;76.11
65718;BME280;52445;52.466;-1.016;2022-12-11T09:51:53;99394.19;;;-0.48;75.68
65718;BME280;52445;52.466;-1.016;2022-12-11T09:54:24;99390.00;;;-0.46;75.64
65718;BME280;52445;52.466;-1.016;2022-12-11T09:57:01;99386.75;;;-0.42;76.19
65718;BME280;52445;52.466;-1.016;2022-12-11T10:02:33;99389.63;;;-0.31;76.04
65718;BME280;52445;52.466;-1.016;2022-12-11T10:16:23;99390.69;;;0.05;76.00
65718;BME280;52445;52.466;-1.016;2022-12-11T10:18:54;99392.44;;;0.07;75.58
65718;BME280;52445;52.466;-1.016;2022-12-11T10:21:21;99392.53;;;0.10;76.19
65718;BME280;52445;52.466;-1.016;2022-12-11T10:23:53;99390.97;;;0.14;75.93
65718;BME280;52445;52.466;-1.016;2022-12-11T10:26:22;99393.56;;;0.17;75.84
65718;BME280;52445;52.466;-1.016;2022-12-11T10:28:50;99391.03;;;0.17;76.06
65718;BME280;52445;52.466;-1.016;2022-12-11T10:31:41;99378.28;;;0.17;75.41
65718;BME280;52445;52.466;-1.016;2022-12-11T10:34:13;99385.13;;;0.18;75.81
65718;BME280;52445;52.466;-1.016;2022-12-11T10:36:41;99383.38;;;0.17;75.66
65718;BME280;52445;52.466;-1.016;2022-12-11T10:39:14;99385.03;;;0.15;75.34
65718;BME280;52445;52.466;-1.016;2022-12-11T10:41:43;99385.13;;;0.18;75.58
65718;BME280;52445;52.466;-1.016;2022-12-11T10:49:53;99384.91;;;0.10;75.59
65718;BME280;52445;52.466;-1.016;2022-12-11T10:55:02;99385.03;;;0.15;76.41
65718;BME280;52445;52.466;-1.016;2022-12-11T10:57:32;99385.94;;;0.17;76.04
65718;BME280;52445;52.466;-1.016;2022-12-11T11:00:01;99381.75;;;0.19;75.85
65718;BME280;52445;52.466;-1.016;2022-12-11T11:02:35;99381.84;;;0.22;76.17
65718;BME280;52445;52.466;-1.016;2022-12-11T11:05:15;99380.19;;;0.24;76.34
65718;BME280;52445;52.466;-1.016;2022-12-11T11:07:42;99373.47;;;0.27;75.49
65718;BME280;52445;52.466;-1.016;2022-12-11T11:12:47;99374.50;;;0.33;75.81
65718;BME280;52445;52.466;-1.016;2022-12-11T11:17:52;99370.44;;;0.40;76.22
65718;BME280;52445;52.466;-1.016;2022-12-11T11:20:25;99365.44;;;0.43;76.11
65718;BME280;52445;52.466;-1.016;2022-12-11T11:22:55;99363.81;;;0.45;75.51
65718;BME280;52445;52.466;-1.016;2022-12-11T11:25:25;99353.66;;;0.48;75.79
65718;BME280;52445;52.466;-1.016;2022-12-11T11:27:55;99361.44;;;0.53;75.86
65718;BME280;52445;52.466;-1.016;2022-12-11T11:33:03;99363.34;;;0.94;75.06
65718;BME280;52445;52.466;-1.016;2022-12-11T11:35:31;99368.13;;;0.82;75.82
65718;BME280;52445;52.466;-1.016;2022-12-11T11:38:11;99364.66;;;0.80;76.27
65718;BME280;52445;52.466;-1.016;2022-12-11T11:40:45;99353.72;;;0.82;76.43
65718;BME280;52445;52.466;-1.016;2022-12-11T11:43:23;99354.56;;;0.83;76.43
65718;BME280;52445;52.466;-1.016;2022-12-11T11:46:07;99351.97;;;0.81;75.39
65718;BME280;52445;52.466;-1.016;2022-12-11T11:56:55;99350.88;;;0.71;75.86
65718;BME280;52445;52.466;-1.016;2022-12-11T11:59:43;99354.16;;;0.67;76.56
65718;BME280;52445;52.466;-1.016;2022-12-11T12:02:14;99347.44;;;0.69;76.30
65718;BME280;52445;52.466;-1.016;2022-12-11T12:04:42;99345.81;;;0.73;75.47
65718;BME280;52445;52.466;-1.016;2022-12-11T12:17:50;99343.34;;;0.76;76.74
65718;BME280;52445;52.466;-1.016;2022-12-11T12:23:31;99340.53;;;0.65;77.03
65718;BME280;52445;52.466;-1.016;2022-12-11T12:26:24;99340.53;;;0.65;77.36
65718;BME280;52445;52.466;-1.016;2022-12-11T12:37:33;99332.06;;;1.01;76.93
65718;BME280;52445;52.466;-1.016;2022-12-11T12:40:22;99338.00;;;1.00;76.92
65718;BME280;52445;52.466;-1.016;2022-12-11T12:48:29;99330.28;;;0.97;76.41
65718;BME280;52445;52.466;-1.016;2022-12-11T12:50:56;99332.78;;;0.96;76.42
65718;BME280;52445;52.466;-1.016;2022-12-11T12:53:26;99331.06;;;0.95;76.04
65718;BME280;52445;52.466;-1.016;2022-12-11T12:55:55;99326.84;;;0.97;77.03
65718;BME280;52445;52.466;-1.016;2022-12-11T12:58:26;99327.81;;;1.00;77.04
65718;BME280;52445;52.466;-1.016;2022-12-11T13:00:54;99325.34;;;1.04;77.11
65718;BME280;52445;52.466;-1.016;2022-12-11T13:03:36;99325.38;;;1.07;75.73
65718;BME280;52445;52.466;-1.016;2022-12-11T13:06:06;99331.31;;;1.06;76.35
65718;BME280;52445;52.466;-1.016;2022-12-11T13:08:40;99321.13;;;1.06;76.32
65718;BME280;52445;52.466;-1.016;2022-12-11T13:11:09;99321.13;;;1.06;76.13
65718;BME280;52445;52.466;-1.016;2022-12-11T13:18:53;99322.06;;;1.46;76.27
65718;BME280;52445;52.466;-1.016;2022-12-11T13:21:26;99321.66;;;1.27;76.63
65718;BME280;52445;52.466;-1.016;2022-12-11T13:23:54;99329.97;;;1.20;76.78
65718;BME280;52445;52.466;-1.016;2022-12-11T13:26:31;99317.19;;;1.19;76.32
65718;BME280;52445;52.466;-1.016;2022-12-11T13:28:58;99324.88;;;1.20;76.62
65718;BME280;52445;52.466;-1.016;2022-12-11T13:31:43;99326.59;;;1.21;76.16
65718;BME280;52445;52.466;-1.016;2022-12-11T13:34:21;99327.47;;;1.22;76.81
65718;BME280;52445;52.466;-1.016;2022-12-11T13:36:51;99333.41;;;1.22;76.31
65718;BME280;52445;52.466;-1.016;2022-12-11T13:39:23;99330.06;;;1.23;75.88
65718;BME280;52445;52.466;-1.016;2022-12-11T13:41:54;99330.06;;;1.23;76.81
65718;BME280;52445;52.466;-1.016;2022-12-11T13:44:26;99326.59;;;1.21;76.67
65718;BME280;52445;52.466;-1.016;2022-12-11T13:46:56;99329.97;;;1.20;77.22
65718;BME280;52445;52.466;-1.016;2022-12-11T13:49:28;99324.88;;;1.20;75.72
65718;BME280;52445;52.466;-1.016;2022-12-11T13:52:00;99327.38;;;1.19;76.64
65718;BME280;52445;52.466;-1.016;2022-12-11T13:54:30;99323.06;;;1.16;75.92
65718;BME280;52445;52.466;-1.016;2022-12-11T13:59:42;99317.09;;;1.15;76.18
65718;BME280;52445;52.466;-1.016;2022-12-11T14:02:16;99321.38;;;1.15;76.06
65718;BME280;52445;52.466;-1.016;2022-12-11T14:04:47;99321.38;;;1.15;76.43
65718;BME280;52445;52.466;-1.016;2022-12-11T14:07:24;99326.47;;;1.15;76.63
65718;BME280;52445;52.466;-1.016;2022-12-11T14:09:58;99333.28;;;1.16;76.41
65718;BME280;52445;52.466;-1.016;2022-12-11T14:12:27;99323.06;;;1.16;76.59
65718;BME280;52445;52.466;-1.016;2022-12-11T14:14:57;99329.03;;;1.17;76.88
65718;BME280;52445;52.466;-1.016;2022-12-11T14:17:27;99333.28;;;1.16;77.31
65718;BME280;52445;52.466;-1.016;2022-12-11T14:19:56;99332.38;;;1.14;75.98
65718;BME280;52445;52.466;-1.016;2022-12-11T14:22:27;99337.44;;;1.12;76.71
65718;BME280;52445;52.466;-1.016;2022-12-11T14:24:57;99343.31;;;1.10;75.89
65718;BME280;52445;52.466;-1.016;2022-12-11T14:27:25;99333.97;;;1.09;76.38
65718;BME280;52445;52.466;-1.016;2022-12-11T14:29:52;99341.59;;;1.09;76.31
65718;BME280;52445;52.466;-1.016;2022-12-11T14:32:41;99344.16;;;1.09;76.27
65718;BME280;52445;52.466;-1.016;2022-12-11T14:35:20;99346.78;;;1.12;76.34
65718;BME280;52445;52.466;-1.016;2022-12-11T14:37:49;99341.69;;;1.12;76.94
65718;BME280;52445;52.466;-1.016;2022-12-11T14:40:19;99350.22;;;1.14;77.00
65718;BME280;52445;52.466;-1.016;2022-12-11T14:42:52;99341.78;;;1.15;76.67
65718;BME280;52445;52.466;-1.016;2022-12-11T14:48:15;99343.47;;;1.16;75.95
65718;BME280;52445;52.466;-1.016;2022-12-11T14:50:51;99346.88;;;1.15;76.70
65718;BME280;52445;52.466;-1.016;2022-12-11T14:53:23;99350.22;;;1.14;75.94
65718;BME280;52445;52.466;-1.016;2022-12-11T14:55:51;99346.78;;;1.12;76.24
65718;BME280;52445;52.466;-1.016;2022-12-11T14:58:23;99348.44;;;1.10;77.11
65718;BME280;52445;52.466;-1.016;2022-12-11T15:00:58;99341.53;;;1.06;76.56
65718;BME280;52445;52.466;-1.016;2022-12-11T15:03:31;99348.25;;;1.02;76.80
65718;BME280;52445;52.466;-1.016;2022-12-11T15:06:00;99343.13;;;1.00;76.99
65718;BME280;52445;52.466;-1.016;2022-12-11T15:08:32;99345.63;;;0.99;76.57
65718;BME280;52445;52.466;-1.016;2022-12-11T15:11:17;99338.81;;;0.98;76.55
65718;BME280;52445;52.466;-1.016;2022-12-11T15:13:52;99343.03;;;0.97;76.58